Time;durP1;ratioP1;P1;durP2;ratioP2;P2;SDS_P1;SDS_P2;PMS_P1;PMS_P2;Temp;Humidity;BMP_temperature;BMP_pressure;BME280_temperature;BME280_humidity;BME280_pressure;Samples;Min_cycle;Max_cycle;Signal;HPM_P1;HPM_P2
2023/10/11 00:00:57;;;;;;;1.92;1.77;;;;;;;14.94;65.00;100640.25;4461782;32;34045;-79
2023/10/11 00:06:00;;;;;;;2.33;2.12;;;;;;;14.97;64.78;100624.16;4475655;32;33402;-79
2023/10/11 00:08:39;;;;;;;2.28;1.95;;;;;;;14.78;65.47;100628.66;4460341;32;35071;-79
2023/10/11 00:11:08;;;;;;;4.22;2.28;;;;;;;14.79;64.95;100625.91;4459782;32;33089;-79
2023/10/11 00:13:37;;;;;;;3.20;2.40;;;;;;;14.84;65.03;100623.87;4475275;32;34709;-79
2023/10/11 00:16:09;;;;;;;3.83;1.60;;;;;;;14.79;65.10;100630.37;4475023;32;33494;-80
2023/10/11 00:18:39;;;;;;;1.23;1.23;;;;;;;14.86;64.87;100618.53;4461832;32;33654;-79
2023/10/11 00:21:11;;;;;;;2.47;2.25;;;;;;;14.80;64.89;100622.31;4462493;32;33767;-79
2023/10/11 00:23:42;;;;;;;2.50;1.95;;;;;;;14.83;64.70;100624.84;4472740;32;35349;-79
2023/10/11 00:26:10;;;;;;;2.12;1.33;;;;;;;14.88;63.59;100618.44;4467748;32;33980;-79
2023/10/11 00:28:38;;;;;;;1.48;1.37;;;;;;;14.82;64.26;100616.94;4477133;32;34731;-80
2023/10/11 00:31:16;;;;;;;1.95;1.85;;;;;;;14.71;64.68;100619.22;4450549;32;32421;-80
2023/10/11 00:33:46;;;;;;;3.67;1.15;;;;;;;14.71;64.43;100616.56;4477133;32;33820;-80
2023/10/11 00:36:16;;;;;;;1.95;1.80;;;;;;;14.53;64.51;100629.81;4473820;32;33452;-79
2023/10/11 00:38:48;;;;;;;1.95;1.85;;;;;;;14.53;64.40;100629.81;4463348;32;33368;-80
2023/10/11 00:41:19;;;;;;;;;;;;;;;14.62;64.19;100624.97;4463201;32;33654;-79
2023/10/11 00:43:52;;;;;;;1.75;1.23;;;;;;;14.69;63.89;100618.47;4471106;32;34831;-79
2023/10/11 00:46:26;;;;;;;1.98;1.33;;;;;;;14.44;64.45;100619.59;4461992;32;32239;-80
2023/10/11 00:48:55;;;;;;;2.33;1.95;;;;;;;14.41;64.42;100614.41;4474923;32;34675;-80
2023/10/11 00:51:26;;;;;;;1.65;1.52;;;;;;;14.34;64.28;100612.97;4464341;32;33885;-80
2023/10/11 00:53:54;;;;;;;5.78;1.55;;;;;;;14.18;64.60;100610.16;4462138;32;33761;-80
2023/10/11 00:56:26;;;;;;;1.42;1.33;;;;;;;14.35;64.36;100610.25;4463502;32;33020;-80
2023/10/11 00:58:55;;;;;;;;;;;;;;;14.34;64.35;100611.19;4463363;32;32935;-81
2023/10/11 01:01:25;;;;;;;2.15;1.92;;;;;;;14.52;63.67;100608.59;4477088;32;34252;-80
2023/10/11 01:03:55;;;;;;;1.58;1.48;;;;;;;14.52;63.53;100603.28;4463854;32;32708;-81
2023/10/11 01:06:25;;;;;;;1.10;1.00;;;;;;;14.36;63.80;100605.78;4476113;32;33173;-81
2023/10/11 01:08:53;;;;;;;0.62;0.60;;;;;;;14.21;64.00;100595.88;4462160;32;34340;-80
2023/10/11 01:11:25;;;;;;;7.47;1.80;;;;;;;14.13;64.38;100596.22;4462109;32;33587;-80
2023/10/11 01:13:53;;;;;;;3.47;3.17;;;;;;;14.18;64.11;100596.00;4448557;32;32808;-80
2023/10/11 01:16:27;;;;;;;2.58;1.83;;;;;;;14.23;63.99;100599.31;4474891;32;32968;-81
2023/10/11 01:18:55;;;;;;;1.60;1.50;;;;;;;14.15;64.46;100601.44;4472484;32;33971;-80
2023/10/11 01:21:32;;;;;;;0.90;0.90;;;;;;;14.15;64.43;100602.34;4451510;32;32988;-79
2023/10/11 01:24:00;;;;;;;4.80;1.80;;;;;;;14.13;64.12;100608.62;4461165;32;32914;-80
2023/10/11 01:26:30;;;;;;;4.25;1.77;;;;;;;13.98;64.66;100621.66;4462682;32;32421;-80
2023/10/11 01:28:57;;;;;;;5.28;1.48;;;;;;;13.95;64.75;100620.94;4462145;32;33202;-79
2023/10/11 01:31:27;;;;;;;2.22;2.03;;;;;;;14.00;64.79;100614.50;4461998;32;34123;-80
2023/10/11 01:33:55;;;;;;;2.35;0.95;;;;;;;13.86;65.24;100608.06;4474162;32;34982;-80
2023/10/11 01:36:23;;;;;;;0.77;0.70;;;;;;;13.86;65.29;100608.94;4461818;32;33571;-80
2023/10/11 01:38:51;;;;;;;1.27;1.17;;;;;;;14.02;64.84;100615.28;4461696;32;33251;-80
2023/10/11 01:41:26;;;;;;;1.35;1.33;;;;;;;14.01;64.99;100610.94;4461007;32;34691;-80
2023/10/11 01:43:56;;;;;;;2.95;2.03;;;;;;;14.04;65.03;100610.75;4458510;32;33277;-80
2023/10/11 01:46:26;;;;;;;1.80;1.40;;;;;;;14.14;64.46;100610.34;4469061;32;34131;-79
2023/10/11 01:48:55;;;;;;;1.37;1.30;;;;;;;13.91;65.13;100614.94;4461221;32;32144;-78
2023/10/11 01:51:27;;;;;;;1.67;1.58;;;;;;;13.97;65.39;100619.09;4460969;32;33870;-79
2023/10/11 01:53:56;;;;;;;;;;;;;;;13.92;65.51;100615.78;4476109;32;33975;-79
2023/10/11 01:56:24;;;;;;;1.35;1.25;;;;;;;14.06;65.18;100619.53;4474839;32;33487;-79
2023/10/11 01:59:00;;;;;;;2.35;2.20;;;;;;;14.04;65.33;100625.84;4471915;32;33440;-79
2023/10/11 02:01:38;;;;;;;3.35;1.37;;;;;;;14.07;64.48;100620.41;4471956;32;34802;-79
2023/10/11 02:04:20;;;;;;;1.87;1.52;;;;;;;14.02;64.79;100623.25;4463571;32;34154;-79
2023/10/11 02:06:48;;;;;;;1.50;1.08;;;;;;;14.00;65.07;100614.50;4474266;32;32218;-79
2023/10/11 02:09:21;;;;;;;3.65;2.85;;;;;;;14.13;64.51;100608.62;4461160;32;33602;-80
2023/10/11 02:11:54;;;;;;;4.03;1.75;;;;;;;13.97;64.75;100603.16;4471554;32;35160;-78
2023/10/11 02:14:28;;;;;;;2.62;1.95;;;;;;;13.95;65.09;100611.19;4452708;32;32628;-79
2023/10/11 02:16:57;;;;;;;5.62;2.25;;;;;;;13.96;65.26;100602.31;4461661;32;32248;-78
2023/10/11 02:19:25;;;;;;;1.00;1.00;;;;;;;13.94;65.31;100612.12;4473720;32;34710;-79
2023/10/11 02:21:56;;;;;;;1.85;1.75;;;;;;;13.95;65.31;100613.84;4475178;32;35478;-80
2023/10/11 02:24:25;;;;;;;1.30;1.30;;;;;;;14.41;63.32;100619.72;4473785;32;33935;-79
2023/10/11 02:26:55;;;;;;;2.75;2.20;;;;;;;14.08;64.14;100612.34;4460035;32;33046;-79
2023/10/11 02:29:25;;;;;;;1.33;1.23;;;;;;;13.88;65.00;100615.06;4474370;32;34621;-79
2023/10/11 02:31:58;;;;;;;3.45;2.12;;;;;;;13.73;65.57;100626.34;4461722;32;33830;-79
2023/10/11 02:34:27;;;;;;;12.50;2.10;;;;;;;13.96;65.55;100623.53;4473385;32;33866;-79
2023/10/11 02:36:56;;;;;;;2.40;2.20;;;;;;;14.24;63.81;100612.53;4462135;32;33853;-79
2023/10/11 02:39:46;;;;;;;2.72;2.10;;;;;;;14.07;64.77;100618.59;4463226;32;33699;-79
2023/10/11 02:42:19;;;;;;;1.62;1.25;;;;;;;14.03;65.24;100613.50;4476927;32;32135;-79
2023/10/11 02:44:48;;;;;;;1.05;0.95;;;;;;;13.92;65.49;100623.75;4477885;32;34700;-79
2023/10/11 02:47:22;;;;;;;5.35;2.83;;;;;;;13.81;65.79;100614.47;4475157;32;32901;-79
2023/10/11 02:49:53;;;;;;;4.53;2.03;;;;;;;13.91;65.53;100614.94;4477074;32;33901;-79
2023/10/11 02:52:35;;;;;;;1.90;1.67;;;;;;;14.04;65.27;100601.94;4473254;32;34877;-79
2023/10/11 02:58:12;;;;;;;6.57;1.62;;;;;;;13.97;65.59;100603.16;4467555;32;32940;-79
2023/10/11 03:00:44;;;;;;;4.15;2.67;;;;;;;14.06;65.09;100597.44;4462714;32;33978;-80
2023/10/11 03:03:15;;;;;;;1.90;1.80;;;;;;;13.95;65.54;100599.69;4450198;32;33142;-80
2023/10/11 03:05:44;;;;;;;1.90;1.48;;;;;;;14.02;65.13;100602.03;4464119;32;34578;-80
2023/10/11 03:08:16;;;;;;;4.18;1.95;;;;;;;14.01;64.92;100610.94;4473565;32;33374;-79
2023/10/11 03:10:53;;;;;;;0.88;0.88;;;;;;;14.02;64.88;100599.37;4476955;32;32448;-79
2023/10/11 03:13:29;;;;;;;3.53;2.67;;;;;;;13.96;65.40;100612.06;4475965;32;33337;-79
2023/10/11 03:15:59;;;;;;;6.62;3.20;;;;;;;14.04;65.27;100604.59;4461707;32;33466;-80
2023/10/11 03:18:33;;;;;;;2.90;2.58;;;;;;;14.07;65.20;100610.63;4459256;32;34260;-79
2023/10/11 03:21:17;;;;;;;1.87;1.70;;;;;;;14.00;65.47;100603.00;4463589;32;32681;-79
2023/10/11 03:23:47;;;;;;;1.67;1.58;;;;;;;13.97;65.28;100601.38;4477658;32;33984;-79
2023/10/11 03:26:22;;;;;;;3.20;1.85;;;;;;;13.95;65.67;100611.19;4460742;32;33537;-80
2023/10/11 03:29:05;;;;;;;2.55;1.92;;;;;;;14.09;65.00;100607.91;4462716;32;32375;-79
2023/10/11 03:31:34;;;;;;;2.92;1.02;;;;;;;13.86;65.87;100611.59;4460695;32;33080;-79
2023/10/11 03:34:10;;;;;;;1.75;1.52;;;;;;;13.93;65.82;100612.19;4476750;32;34032;-80
2023/10/11 03:36:51;;;;;;;1.65;1.55;;;;;;;13.88;66.11;100614.19;4464621;32;33828;-79
2023/10/11 03:39:31;;;;;;;2.45;2.15;;;;;;;13.96;65.75;100618.25;4462681;32;32552;-79
2023/10/11 03:42:21;;;;;;;3.87;2.25;;;;;;;13.84;66.24;100616.13;4474956;32;33829;-80
2023/10/11 03:44:47;;;;;;;6.30;2.22;;;;;;;13.97;65.89;100617.31;4478697;32;33664;-79
2023/10/11 03:47:22;;;;;;;5.05;2.83;;;;;;;13.99;65.96;100612.78;4463833;32;34543;-79
2023/10/11 03:49:51;;;;;;;4.30;2.50;;;;;;;14.04;65.55;100608.09;4474213;32;34173;-80
2023/10/11 03:54:47;;;;;;;3.45;1.83;;;;;;;13.94;66.24;100614.78;4476157;32;34119;-78
2023/10/11 03:57:18;;;;;;;4.00;3.60;;;;;;;14.06;66.15;100613.37;4463057;32;34465;-79
2023/10/11 03:59:48;;;;;;;4.10;1.02;;;;;;;14.23;65.89;100610.78;4475320;32;33310;-80
2023/10/11 04:02:17;;;;;;;9.85;3.00;;;;;;;14.21;65.98;100614.47;4475795;32;34638;-79
2023/10/11 04:04:48;;;;;;;1.65;1.42;;;;;;;14.29;65.82;100614.94;4459912;32;33652;-80
2023/10/11 04:07:17;;;;;;;1.85;1.75;;;;;;;14.29;65.95;100605.22;4461759;32;32942;-80
2023/10/11 04:09:46;;;;;;;3.33;2.83;;;;;;;14.45;65.27;100610.66;4474326;32;33304;-80
2023/10/11 04:12:14;;;;;;;4.87;2.85;;;;;;;14.34;65.74;100616.50;4475532;32;33956;-81
2023/10/11 04:14:45;;;;;;;1.10;1.05;;;;;;;14.35;65.68;100625.31;4474384;32;33738;-80
2023/10/11 04:19:53;;;;;;;1.67;1.52;;;;;;;14.33;65.81;100606.78;4471879;32;32473;-80
2023/10/11 04:22:24;;;;;;;1.35;1.25;;;;;;;14.35;65.99;100598.75;4461715;32;32870;-81
2023/10/11 04:24:55;;;;;;;2.83;2.62;;;;;;;14.27;66.18;100603.56;4462999;32;33869;-80
2023/10/11 04:29:52;;;;;;;1.10;1.10;;;;;;;14.85;63.80;100616.78;4463489;32;32480;-80
2023/10/11 04:35:36;;;;;;;3.05;1.45;;;;;;;14.57;64.80;100615.47;4473281;32;33718;-81
2023/10/11 04:38:01;;;;;;;3.05;1.40;;;;;;;14.50;65.27;100627.28;4474096;32;33794;-81
2023/10/11 04:43:05;;;;;;;1.55;1.45;;;;;;;14.58;65.47;100622.50;4464010;32;33159;-80
2023/10/11 04:45:44;;;;;;;;;;;;;;;14.62;65.11;100617.00;4463572;32;33340;-80
2023/10/11 04:48:33;;;;;;;3.33;1.58;;;;;;;14.56;65.92;100627.00;4475209;32;34248;-80
2023/10/11 04:59:20;;;;;;;4.10;2.40;;;;;;;14.52;66.10;100629.87;4471506;32;33947;-81
2023/10/11 05:04:27;;;;;;;2.03;1.83;;;;;;;14.68;66.07;100624.72;4458395;32;33108;-80
2023/10/11 05:06:55;;;;;;;3.08;2.85;;;;;;;14.82;65.56;100625.78;4459795;32;34077;-80
2023/10/11 05:09:39;;;;;;;6.80;3.03;;;;;;;14.81;65.86;100631.16;4464039;31;32968;-79
2023/10/11 05:12:12;;;;;;;2.12;1.85;;;;;;;14.72;66.48;100642.25;4460788;32;33333;-79
2023/10/11 05:25:37;;;;;;;3.50;2.62;;;;;;;14.84;66.60;100652.28;4459426;32;33021;-79
2023/10/11 05:29:09;;;;;;;4.12;2.53;;;;;;;14.99;66.47;100654.19;4459006;32;33187;-79
2023/10/11 05:31:22;;;;;;;2.95;2.75;;;;;;;15.09;66.06;100660.78;4465439;32;33156;-79
2023/10/11 05:36:40;;;;;;;4.95;4.05;;;;;;;14.89;67.17;100668.00;4471248;32;33825;-79
2023/10/11 05:53:01;;;;;;;5.70;3.12;;;;;;;15.20;66.87;100656.75;4471660;32;33978;-80
2023/10/11 05:55:30;;;;;;;4.00;3.70;;;;;;;15.17;66.77;100649.78;4471762;32;32710;-80
2023/10/11 05:58:04;;;;;;;2.28;2.17;;;;;;;15.19;66.81;100650.59;4459012;32;33668;-80
2023/10/11 06:00:38;;;;;;;21.40;3.80;;;;;;;15.53;65.87;100654.22;4471095;32;33712;-80
2023/10/11 06:03:11;;;;;;;6.37;2.72;;;;;;;15.43;65.94;100661.81;4458697;32;32396;-80
2023/10/11 06:05:41;;;;;;;4.95;4.55;;;;;;;15.25;66.73;100665.38;4473607;32;33458;-80
2023/10/11 06:08:15;;;;;;;3.58;2.62;;;;;;;15.21;67.22;100669.12;4472928;32;33425;-80
2023/10/11 06:10:43;;;;;;;3.72;3.53;;;;;;;14.99;67.81;100674.63;4458991;32;33975;-80
2023/10/11 06:13:13;;;;;;;7.78;4.37;;;;;;;14.85;68.74;100669.94;4451296;32;33540;-79
2023/10/11 06:15:44;;;;;;;9.20;3.45;;;;;;;14.85;69.09;100683.25;4453660;32;32865;-80
2023/10/11 06:18:38;;;;;;;8.32;3.80;;;;;;;15.07;68.25;100675.97;4472598;32;33147;-82
2023/10/11 06:21:06;;;;;;;2.25;2.10;;;;;;;15.06;68.10;100676.91;4475108;32;33492;-79
2023/10/11 06:23:38;;;;;;;7.37;5.12;;;;;;;15.25;67.26;100678.69;4461753;32;32589;-79
2023/10/11 06:29:07;;;;;;;8.23;4.60;;;;;;;15.14;67.61;100667.69;4464177;32;32786;-79
2023/10/11 06:31:39;;;;;;;4.93;4.47;;;;;;;15.11;68.29;100669.56;4471947;32;33969;-79
2023/10/11 06:34:24;;;;;;;7.57;3.17;;;;;;;14.96;69.60;100667.66;4475399;32;33483;-79
2023/10/11 06:36:53;;;;;;;9.00;5.55;;;;;;;15.18;68.88;100680.75;4461258;32;33303;-80
2023/10/11 06:42:21;;;;;;;3.65;3.30;;;;;;;15.28;68.88;100670.53;4473780;32;32084;-79
2023/10/11 06:44:52;;;;;;;4.20;2.83;;;;;;;15.30;68.87;100680.19;4446081;32;33374;-79
2023/10/11 06:47:21;;;;;;;11.75;6.12;;;;;;;15.55;67.91;100673.63;4473641;32;34019;-79
2023/10/11 06:49:56;;;;;;;13.07;4.55;;;;;;;15.71;67.29;100674.59;4462279;32;32735;-79
2023/10/11 06:52:25;;;;;;;8.98;3.60;;;;;;;15.80;67.13;100675.94;4472543;32;33928;-79
2023/10/11 06:55:16;;;;;;;8.52;4.15;;;;;;;15.90;66.78;100678.97;4471159;32;31522;-79
2023/10/11 06:57:45;;;;;;;4.53;3.25;;;;;;;15.69;67.58;100680.94;4461968;32;31917;-79
2023/10/11 07:00:30;;;;;;;10.63;4.50;;;;;;;15.51;68.34;100686.22;4459793;32;33290;-80
2023/10/11 07:03:09;;;;;;;8.05;4.70;;;;;;;15.61;68.45;100684.81;4474365;32;33988;-79
2023/10/11 07:05:45;;;;;;;14.52;5.32;;;;;;;15.78;68.58;100696.47;4462160;31;32669;-79
2023/10/11 07:08:18;;;;;;;5.37;4.72;;;;;;;15.36;69.72;100690.50;4478090;32;31407;-80
2023/10/11 07:13:46;;;;;;;5.62;4.07;;;;;;;15.54;70.32;100683.41;4464285;32;33573;-81
2023/10/11 07:16:14;;;;;;;9.07;5.07;;;;;;;16.03;68.51;100691.59;4459756;32;33303;-81
2023/10/11 07:18:43;;;;;;;16.58;4.40;;;;;;;15.87;68.71;100683.53;4468849;32;33322;-81
2023/10/11 07:21:11;;;;;;;11.15;4.18;;;;;;;16.18;68.25;100697.06;4479975;32;34341;-81
2023/10/11 07:29:01;;;;;;;7.78;5.12;;;;;;;15.89;70.36;100699.44;4476938;32;32347;-81
2023/10/11 07:31:35;;;;;;;11.43;5.62;;;;;;;16.30;68.93;100691.09;4476778;32;34088;-81
2023/10/11 07:34:09;;;;;;;10.15;4.28;;;;;;;16.57;67.71;100681.59;4463621;32;34098;-81
2023/10/11 07:36:39;;;;;;;18.75;4.87;;;;;;;16.26;68.27;100692.19;4463923;32;33830;-81
2023/10/11 07:39:14;;;;;;;13.80;5.82;;;;;;;16.54;67.49;100691.56;4461576;32;33355;-82
2023/10/11 07:41:44;;;;;;;5.82;4.20;;;;;;;16.38;68.16;100692.41;4453476;32;33786;-81
2023/10/11 07:44:17;;;;;;;8.38;6.40;;;;;;;16.59;67.69;100682.38;4475841;32;33992;-81
2023/10/11 07:46:45;;;;;;;5.50;4.55;;;;;;;16.56;67.80;100684.34;4462280;32;34097;-82
2023/10/11 07:49:22;;;;;;;8.48;7.28;;;;;;;16.45;68.28;100687.59;4475006;32;33486;-82
2023/10/11 07:51:58;;;;;;;6.72;4.45;;;;;;;16.36;68.50;100693.41;4462567;32;33157;-81
2023/10/11 07:54:27;;;;;;;6.03;4.85;;;;;;;16.35;69.04;100697.87;4476171;32;33254;-81
2023/10/11 07:56:57;;;;;;;7.20;6.50;;;;;;;16.51;68.58;100695.25;4462090;32;33882;-81
2023/10/11 07:59:27;;;;;;;5.93;3.87;;;;;;;16.56;68.77;100684.34;4449212;32;32370;-81
2023/10/11 08:01:56;;;;;;;4.28;3.83;;;;;;;16.58;69.28;100683.31;4450813;32;33381;-81
2023/10/11 08:04:28;;;;;;;13.68;5.62;;;;;;;16.20;71.04;100684.53;4477334;32;33610;-82
2023/10/11 08:06:59;;;;;;;8.35;5.03;;;;;;;16.78;69.39;100681.41;4456145;32;32762;-81
2023/10/11 08:09:45;;;;;;;7.53;4.82;;;;;;;17.04;68.75;100686.16;4461059;32;33412;-81
2023/10/11 08:12:16;;;;;;;5.95;4.72;;;;;;;17.38;66.72;100689.56;4473791;32;32851;-82
2023/10/11 08:14:45;;;;;;;11.80;7.78;;;;;;;17.43;66.59;100687.47;4476919;32;34139;-81
2023/10/11 08:17:17;;;;;;;12.05;6.82;;;;;;;17.32;67.35;100689.88;4475520;32;33646;-82
2023/10/11 08:19:53;;;;;;;10.07;5.18;;;;;;;17.34;67.29;100693.34;4449999;32;32051;-81
2023/10/11 08:22:25;;;;;;;23.73;7.93;;;;;;;17.40;67.70;100692.97;4462055;32;33070;-82
2023/10/11 08:24:56;;;;;;;7.00;5.15;;;;;;;17.46;66.78;100686.41;4462808;32;33857;-81
2023/10/11 08:27:27;;;;;;;9.10;3.67;;;;;;;17.58;66.45;100686.56;4476995;32;34197;-81
2023/10/11 08:32:38;;;;;;;4.40;3.70;;;;;;;17.83;66.38;100679.81;4470881;32;34185;-81
2023/10/11 08:35:07;;;;;;;3.75;3.00;;;;;;;17.83;66.67;100679.81;4450066;32;33229;-81
2023/10/11 08:37:34;;;;;;;3.70;3.35;;;;;;;17.85;65.83;100684.13;4462348;32;33756;-81
2023/10/11 08:40:19;;;;;;;9.70;3.00;;;;;;;17.88;65.49;100672.38;4473460;32;33426;-81
2023/10/11 08:42:52;;;;;;;7.18;4.32;;;;;;;17.80;65.79;100680.87;4474688;32;34033;-81
2023/10/11 08:45:33;;;;;;;;;;;;;;;18.55;63.73;100676.25;4475887;32;33070;-82
2023/10/11 08:48:05;;;;;;;5.68;4.20;;;;;;;18.40;63.62;100674.53;4476477;32;34410;-83
2023/10/11 08:50:34;;;;;;;10.25;6.40;;;;;;;18.60;63.44;100673.28;4468370;32;33473;-82
2023/10/11 08:53:07;;;;;;;7.32;5.07;;;;;;;18.58;63.34;100668.03;4462786;32;33104;-81
2023/10/11 08:55:39;;;;;;;8.68;5.47;;;;;;;19.01;62.14;100669.81;4478853;32;33206;-82
2023/10/11 08:58:27;;;;;;;10.25;5.45;;;;;;;19.22;61.02;100668.38;4463779;32;33826;-82
2023/10/11 09:00:58;;;;;;;8.48;6.50;;;;;;;19.32;60.75;100669.53;4464510;32;33109;-81
2023/10/11 09:03:28;;;;;;;10.30;5.43;;;;;;;19.74;59.65;100670.28;4447888;32;33101;-81
2023/10/11 09:05:59;;;;;;;19.27;4.82;;;;;;;19.62;59.70;100672.00;4463635;32;36575;-82
2023/10/11 09:08:35;;;;;;;13.40;5.53;;;;;;;19.89;59.09;100661.22;4474140;32;33726;-82
2023/10/11 09:11:06;;;;;;;14.52;7.80;;;;;;;19.78;59.60;100676.31;4475081;32;33156;-82
2023/10/11 09:13:36;;;;;;;8.18;5.47;;;;;;;19.89;58.44;100663.03;4458760;32;33724;-82
2023/10/11 09:16:13;;;;;;;15.95;5.30;;;;;;;20.48;57.26;100658.03;4474483;32;36536;-81
2023/10/11 09:19:01;;;;;;;8.70;5.40;;;;;;;20.68;56.61;100664.63;4450658;32;32852;-81
2023/10/11 09:21:29;;;;;;;12.63;5.37;;;;;;;20.59;57.31;100662.62;4475390;32;32772;-82
2023/10/11 09:24:00;;;;;;;15.75;3.53;;;;;;;20.75;56.39;100655.19;4474576;32;34123;-82
2023/10/11 09:26:37;;;;;;;4.78;4.22;;;;;;;20.79;56.52;100661.16;4474686;32;33310;-82
2023/10/11 09:29:16;;;;;;;7.03;5.72;;;;;;;21.04;55.53;100657.56;4445185;32;34803;-82
2023/10/11 09:32:04;;;;;;;3.00;2.80;;;;;;;21.00;56.05;100656.06;4473918;32;32178;-81
2023/10/11 09:34:32;;;;;;;8.57;4.43;;;;;;;21.09;55.67;100664.31;4462500;32;33584;-82
2023/10/11 09:37:00;;;;;;;5.78;4.85;;;;;;;21.43;54.82;100672.56;4461880;32;35232;-81
2023/10/11 09:39:29;;;;;;;4.82;4.28;;;;;;;21.41;54.41;100661.06;4461920;32;34007;-81
2023/10/11 09:42:04;;;;;;;23.08;6.72;;;;;;;21.51;54.42;100662.09;4463449;32;33259;-82
2023/10/11 09:44:37;;;;;;;18.00;4.78;;;;;;;21.52;54.04;100661.13;4465054;32;32518;-81
2023/10/11 09:47:07;;;;;;;5.62;4.90;;;;;;;21.47;54.21;100666.00;4474304;32;33969;-81
2023/10/11 09:49:43;;;;;;;11.50;5.15;;;;;;;21.38;54.76;100661.31;4461460;32;33971;-82
2023/10/11 09:52:17;;;;;;;4.85;4.32;;;;;;;21.33;54.48;100658.13;4460864;32;34242;-82
2023/10/11 09:54:45;;;;;;;5.78;3.33;;;;;;;21.34;54.86;100657.13;4469822;32;34380;-82
2023/10/11 09:57:25;;;;;;;3.25;2.33;;;;;;;21.69;54.06;100657.13;4460740;32;33143;-81
2023/10/11 10:00:03;;;;;;;5.00;4.60;;;;;;;21.83;53.79;100656.94;4472969;32;33878;-82
2023/10/11 10:02:36;;;;;;;7.82;4.78;;;;;;;22.07;53.02;100658.69;4449090;32;32582;-81
2023/10/11 10:05:05;;;;;;;5.05;4.18;;;;;;;22.34;52.90;100653.03;4461087;32;34224;-81
2023/10/11 10:10:11;;;;;;;7.62;3.17;;;;;;;22.47;52.11;100643.00;4460984;32;32943;-82
2023/10/11 10:12:54;;;;;;;4.57;3.12;;;;;;;22.72;51.10;100639.19;4463060;32;33278;-82
2023/10/11 10:15:23;;;;;;;3.78;2.55;;;;;;;23.06;50.12;100637.28;4475805;32;34695;-82
2023/10/11 10:17:57;;;;;;;4.40;2.62;;;;;;;23.13;50.47;100643.91;4456492;32;32751;-81
2023/10/11 10:20:46;;;;;;;3.03;2.05;;;;;;;22.71;51.16;100632.09;4460766;32;33650;-82
2023/10/11 10:23:14;;;;;;;3.05;1.62;;;;;;;22.88;51.05;100618.12;4471850;32;34097;-82
2023/10/11 10:25:46;;;;;;;7.20;3.50;;;;;;;22.87;51.30;100620.91;4462701;32;34164;-82
2023/10/11 10:28:32;;;;;;;5.10;3.15;;;;;;;23.25;50.88;100621.31;4460108;32;33129;-82
2023/10/11 10:31:16;;;;;;;12.15;2.62;;;;;;;23.21;50.50;100613.59;4457224;32;33786;-82
2023/10/11 10:33:51;;;;;;;4.80;3.05;;;;;;;23.69;49.39;100614.03;4472953;32;32585;-82
2023/10/11 10:36:20;;;;;;;5.30;2.40;;;;;;;24.00;48.47;100601.44;4472400;32;32964;-82
2023/10/11 10:39:00;;;;;;;2.80;1.52;;;;;;;23.92;48.38;100603.94;4477114;32;34459;-82
2023/10/11 10:41:31;;;;;;;2.42;1.45;;;;;;;23.97;48.81;100609.78;4474780;32;33612;-82
2023/10/11 10:44:10;;;;;;;4.18;2.67;;;;;;;24.31;47.58;100600.56;4463565;32;33868;-82
2023/10/11 10:46:49;;;;;;;9.85;2.92;;;;;;;24.51;47.53;100588.91;4472917;32;33969;-82
2023/10/11 10:49:19;;;;;;;2.37;1.80;;;;;;;24.60;47.29;100582.69;4446907;32;32660;-82
2023/10/11 10:51:47;;;;;;;3.22;1.73;;;;;;;24.64;47.17;100578.72;4474810;32;34561;-83
2023/10/11 10:54:17;;;;;;;1.15;1.12;;;;;;;24.58;47.65;100575.69;4471311;32;34062;-82
2023/10/11 10:56:47;;;;;;;3.20;1.42;;;;;;;24.32;47.93;100576.19;4458645;32;33170;-82
2023/10/11 10:59:20;;;;;;;2.12;1.37;;;;;;;24.13;48.35;100589.59;4477461;32;34755;-82
2023/10/11 11:01:50;;;;;;;5.15;1.50;;;;;;;24.29;48.13;100568.34;4476702;32;33921;-82
2023/10/11 11:04:28;;;;;;;2.20;1.95;;;;;;;24.52;47.56;100571.72;4466168;32;33911;-82
2023/10/11 11:06:58;;;;;;;0.77;0.75;;;;;;;24.84;47.29;100562.56;4464490;32;33100;-82
2023/10/11 11:09:26;;;;;;;0.95;0.73;;;;;;;25.07;45.40;100555.00;4477503;32;33601;-82
2023/10/11 11:12:16;;;;;;;1.02;0.95;;;;;;;24.68;47.39;100555.81;4457524;32;33680;-81
2023/10/11 11:14:56;;;;;;;1.20;1.10;;;;;;;25.06;46.68;100546.06;4474808;32;33699;-82
2023/10/11 11:17:46;;;;;;;9.77;3.78;;;;;;;25.10;46.44;100552.91;4475790;32;35057;-82
2023/10/11 11:20:16;;;;;;;2.33;1.27;;;;;;;25.48;45.23;100540.38;4475188;32;33226;-81
2023/10/11 11:22:47;;;;;;;3.53;1.70;;;;;;;25.56;44.90;100537.78;4476815;32;34563;-82
2023/10/11 11:25:34;;;;;;;2.70;1.48;;;;;;;25.80;44.36;100537.34;4450564;32;33201;-82
2023/10/11 11:28:16;;;;;;;1.83;1.33;;;;;;;26.25;43.85;100537.44;4475513;32;33530;-82
2023/10/11 11:30:50;;;;;;;1.20;0.70;;;;;;;26.05;43.56;100530.41;4479654;32;33953;-82
2023/10/11 11:33:28;;;;;;;0.85;0.85;;;;;;;25.72;43.84;100527.19;4464190;32;33704;-82
2023/10/11 11:35:57;;;;;;;2.25;1.48;;;;;;;25.81;43.62;100527.38;4462283;32;32211;-83
2023/10/11 11:38:29;;;;;;;0.50;0.50;;;;;;;26.34;42.97;100510.44;4466079;32;34215;-82
2023/10/11 11:41:04;;;;;;;2.03;1.02;;;;;;;26.65;42.50;100511.00;4474789;32;33615;-82
2023/10/11 11:43:48;;;;;;;1.15;1.15;;;;;;;26.51;42.28;100504.25;4477252;32;33253;-82
2023/10/11 11:46:17;;;;;;;2.83;1.73;;;;;;;26.02;43.00;100498.25;4472437;32;214427;-82
2023/10/11 11:48:46;;;;;;;2.28;1.80;;;;;;;25.95;43.07;100497.13;4451821;32;32588;-82
2023/10/11 11:51:13;;;;;;;4.20;0.60;;;;;;;25.91;43.79;100501.13;4476631;32;34026;-82
2023/10/11 11:53:45;;;;;;;3.10;1.80;;;;;;;26.23;42.97;100489.84;4463390;32;34491;-82
2023/10/11 11:56:15;;;;;;;0.52;0.45;;;;;;;25.77;43.70;100486.22;4476776;32;33091;-82
2023/10/11 11:58:46;;;;;;;2.70;1.70;;;;;;;26.14;42.81;100483.50;4448869;32;33728;-82
2023/10/11 12:01:19;;;;;;;2.65;1.52;;;;;;;26.38;42.84;100487.47;4451688;32;33340;-82
2023/10/11 12:03:56;;;;;;;3.03;1.75;;;;;;;26.44;42.29;100489.59;4452532;32;33525;-82
2023/10/11 12:06:24;;;;;;;1.12;1.08;;;;;;;26.28;43.18;100485.69;4476964;32;32911;-82
2023/10/11 12:08:59;;;;;;;1.20;1.02;;;;;;;26.66;42.22;100480.19;4466058;32;32712;-83
2023/10/11 12:11:29;;;;;;;1.83;1.17;;;;;;;26.80;42.45;100479.66;4459389;32;33231;-82
2023/10/11 12:14:03;;;;;;;3.72;2.33;;;;;;;26.76;41.83;100479.09;4474567;32;34752;-83
2023/10/11 12:16:31;;;;;;;1.12;0.82;;;;;;;27.39;40.55;100475.41;4461541;32;32925;-82
2023/10/11 12:18:59;;;;;;;0.55;0.50;;;;;;;27.14;40.81;100466.25;4465046;32;34594;-82
2023/10/11 12:21:29;;;;;;;3.90;1.92;;;;;;;27.00;40.73;100472.22;4472749;32;33282;-83
2023/10/11 12:23:59;;;;;;;0.55;0.55;;;;;;;26.70;38.93;100471.59;4474733;32;33285;-82
2023/10/11 12:26:28;;;;;;;1.45;1.17;;;;;;;27.09;38.08;100463.16;4458854;32;32096;-82
2023/10/11 12:28:58;;;;;;;1.02;0.70;;;;;;;26.92;38.53;100474.84;4461240;32;32890;-82
2023/10/11 12:31:27;;;;;;;0.62;0.62;;;;;;;27.22;37.62;100463.59;4473266;32;33555;-82
2023/10/11 12:33:55;;;;;;;2.08;1.27;;;;;;;27.23;38.04;100459.88;4471526;32;31958;-83
2023/10/11 12:36:28;;;;;;;0.37;0.37;;;;;;;27.37;37.81;100449.47;4462432;32;33215;-82
2023/10/11 12:38:58;;;;;;;2.65;1.25;;;;;;;27.40;37.78;100454.59;4471373;32;34855;-82
2023/10/11 12:41:26;;;;;;;2.72;1.20;;;;;;;27.58;37.90;100447.22;4461268;32;34444;-82
2023/10/11 12:43:54;;;;;;;6.10;1.90;;;;;;;27.23;38.01;100448.19;4470343;32;34606;-82
2023/10/11 12:46:24;;;;;;;3.95;1.20;;;;;;;27.26;37.24;100448.72;4461236;32;33039;-82
2023/10/11 12:48:57;;;;;;;1.98;1.65;;;;;;;27.28;37.08;100441.28;4456651;32;32983;-82
2023/10/11 12:51:25;;;;;;;0.40;0.40;;;;;;;27.32;37.39;100441.81;4466192;32;35042;-82
2023/10/11 12:53:56;;;;;;;3.92;1.45;;;;;;;27.54;37.04;100429.59;4475477;32;32074;-82
2023/10/11 12:56:25;;;;;;;0.95;0.37;;;;;;;27.54;37.17;100430.44;4459800;32;33265;-82
2023/10/11 12:58:54;;;;;;;4.50;1.02;;;;;;;27.65;37.22;100426.56;4463030;32;33182;-82
2023/10/11 13:01:36;;;;;;;3.20;1.15;;;;;;;28.16;36.30;100419.34;4460896;32;33095;-82
2023/10/11 13:04:08;;;;;;;9.98;1.92;;;;;;;28.41;35.36;100416.72;4448778;32;33458;-82
2023/10/11 13:06:40;;;;;;;0.20;0.17;;;;;;;27.99;35.96;100417.59;4471320;32;33726;-82